createdAt,value
2022-08-19T00:02:04.585Z,53.88
2022-08-19T00:04:37.370Z,53.79
2022-08-19T00:07:07.078Z,53.75
2022-08-19T00:09:35.017Z,54.09
2022-08-19T00:12:02.854Z,54.35
2022-08-19T00:14:33.658Z,54.77
2022-08-19T00:17:05.776Z,55.52
2022-08-19T00:19:33.459Z,54.80
2022-08-19T00:22:00.926Z,55.15
2022-08-19T00:24:28.162Z,55.08
2022-08-19T00:26:56.142Z,55.30
2022-08-19T00:29:25.534Z,55.21
2022-08-19T00:31:57.491Z,55.12
2022-08-19T00:34:24.715Z,54.67
2022-08-19T00:36:51.716Z,54.69
2022-08-19T00:39:19.214Z,55.05
2022-08-19T00:41:49.757Z,54.79
2022-08-19T00:44:27.212Z,54.64
2022-08-19T00:46:58.226Z,54.65
2022-08-19T00:49:36.350Z,55.19
2022-08-19T00:52:17.540Z,54.82
2022-08-19T00:54:52.390Z,54.98
2022-08-19T00:57:31.748Z,54.81
2022-08-19T01:00:03.090Z,55.11
2022-08-19T01:02:33.350Z,54.89
2022-08-19T01:05:06.280Z,55.09
2022-08-19T01:07:37.894Z,54.86
2022-08-19T01:10:09.505Z,55.23
2022-08-19T01:12:37.264Z,55.28
2022-08-19T01:15:09.568Z,55.31
2022-08-19T01:17:39.552Z,55.63
2022-08-19T01:20:10.440Z,55.51
2022-08-19T01:22:52.143Z,55.31
2022-08-19T01:25:25.065Z,55.38
2022-08-19T01:27:54.680Z,55.92
2022-08-19T01:30:30.232Z,55.96
2022-08-19T01:33:01.498Z,55.62
2022-08-19T01:35:31.040Z,55.98
2022-08-19T01:38:06.908Z,55.47
2022-08-19T01:40:36.216Z,55.60
2022-08-19T01:43:04.746Z,55.45
2022-08-19T01:45:34.573Z,55.31
2022-08-19T01:48:02.705Z,55.38
2022-08-19T01:50:32.688Z,55.35
2022-08-19T01:53:05.996Z,56.00
2022-08-19T01:55:40.613Z,55.34
2022-08-19T01:58:15.268Z,55.56
2022-08-19T02:00:42.798Z,56.42
2022-08-19T02:03:12.039Z,56.47
2022-08-19T02:05:40.912Z,56.06
2022-08-19T02:08:09.068Z,56.04
2022-08-19T02:10:44.464Z,56.83
2022-08-19T02:13:14.395Z,56.73
2022-08-19T02:15:42.290Z,56.57
2022-08-19T02:18:09.785Z,57.34
2022-08-19T02:20:38.632Z,57.59
2022-08-19T02:23:13.866Z,57.55
2022-08-19T02:25:46.788Z,57.21
2022-08-19T02:28:18.327Z,57.68
2022-08-19T02:30:47.681Z,58.37
2022-08-19T02:33:15.610Z,57.94
2022-08-19T02:35:45.832Z,57.74
2022-08-19T02:38:26.199Z,57.84
2022-08-19T02:41:00.549Z,57.85
2022-08-19T02:43:33.619Z,58.46
2022-08-19T02:46:01.850Z,58.20
2022-08-19T02:48:29.119Z,58.06
2022-08-19T02:50:56.361Z,58.47
2022-08-19T02:53:27.644Z,58.08
2022-08-19T02:55:55.216Z,58.52
2022-08-19T02:58:22.908Z,58.53
2022-08-19T03:00:54.304Z,57.88
2022-08-19T03:03:22.148Z,59.00
2022-08-19T03:05:56.259Z,58.84
2022-08-19T03:08:25.111Z,58.85
2022-08-19T03:10:53.764Z,59.12
2022-08-19T03:13:20.940Z,60.08
2022-08-19T03:15:49.244Z,59.53
2022-08-19T03:18:18.067Z,59.13
2022-08-19T03:20:51.341Z,59.00
2022-08-19T03:23:18.445Z,59.22
2022-08-19T03:25:58.409Z,59.02
2022-08-19T03:28:35.542Z,58.96
2022-08-19T03:31:42.099Z,58.89
2022-08-19T03:33:58.371Z,59.09
2022-08-19T03:36:28.529Z,58.83
2022-08-19T03:39:00.211Z,58.68
2022-08-19T03:41:45.098Z,59.17
2022-08-19T03:44:18.032Z,58.98
2022-08-19T03:46:48.324Z,59.09
2022-08-19T03:49:18.353Z,58.99
2022-08-19T03:51:47.662Z,59.21
2022-08-19T03:54:20.353Z,59.45
2022-08-19T03:56:50.956Z,59.27
2022-08-19T03:59:29.433Z,59.34
2022-08-19T04:01:59.760Z,60.44
2022-08-19T04:04:29.192Z,59.52
2022-08-19T04:06:57.830Z,60.17
2022-08-19T04:09:25.281Z,60.84
2022-08-19T04:11:55.845Z,60.85
2022-08-19T04:14:29.241Z,59.95
2022-08-19T04:16:56.796Z,59.67
2022-08-19T04:19:24.100Z,60.19
2022-08-19T04:21:54.146Z,60.46
2022-08-19T04:24:22.374Z,60.61
2022-08-19T04:26:50.715Z,60.13
2022-08-19T04:29:26.066Z,59.79
2022-08-19T04:31:56.439Z,60.51
2022-08-19T04:34:27.648Z,60.86
2022-08-19T04:36:57.442Z,60.52
2022-08-19T04:39:48.959Z,61.23
2022-08-19T04:42:37.476Z,60.11
2022-08-19T04:45:09.435Z,60.80
2022-08-19T04:47:47.592Z,60.16
2022-08-19T04:50:26.884Z,60.05
2022-08-19T04:52:54.115Z,60.59
2022-08-19T04:55:21.385Z,60.88
2022-08-19T04:57:48.468Z,61.04
2022-08-19T05:00:15.748Z,60.87
2022-08-19T05:02:43.548Z,60.40
2022-08-19T05:05:10.885Z,60.57
2022-08-19T05:07:38.303Z,60.09
2022-08-19T05:10:07.290Z,60.24
2022-08-19T05:12:34.632Z,60.74
2022-08-19T05:15:04.671Z,60.69
2022-08-19T05:17:36.206Z,60.19
2022-08-19T05:20:26.061Z,60.13
2022-08-19T05:22:53.317Z,60.82
2022-08-19T05:25:22.591Z,60.39
2022-08-19T05:27:49.925Z,60.60
2022-08-19T05:30:18.122Z,60.46
2022-08-19T05:32:45.581Z,60.77
2022-08-19T05:35:13.112Z,60.29
2022-08-19T05:37:43.713Z,60.62
2022-08-19T05:40:11.477Z,61.08
2022-08-19T05:42:38.813Z,61.08
2022-08-19T05:45:06.954Z,60.31
2022-08-19T05:47:34.016Z,60.71
2022-08-19T05:50:05.139Z,61.78
2022-08-19T05:52:32.662Z,61.13
2022-08-19T05:55:00.544Z,61.20
2022-08-19T05:57:29.867Z,61.70
2022-08-19T05:59:59.108Z,61.68
2022-08-19T06:02:31.958Z,62.20
2022-08-19T06:04:59.244Z,61.58
2022-08-19T06:07:27.015Z,62.80
2022-08-19T06:09:58.908Z,63.63
2022-08-19T06:12:33.991Z,63.08
2022-08-19T06:15:09.709Z,63.17
2022-08-19T06:17:37.115Z,62.67
2022-08-19T06:20:11.194Z,62.80
2022-08-19T06:22:43.188Z,62.66
2022-08-19T06:25:11.176Z,62.48
2022-08-19T06:27:53.118Z,62.99
2022-08-19T06:30:25.549Z,62.18
2022-08-19T06:32:52.594Z,63.12
2022-08-19T06:35:20.261Z,63.03
2022-08-19T06:37:47.965Z,63.52
2022-08-19T06:40:15.178Z,63.33
2022-08-19T06:42:50.214Z,63.74
2022-08-19T06:45:25.110Z,63.57
2022-08-19T06:48:01.859Z,63.36
2022-08-19T06:50:28.817Z,63.48
2022-08-19T06:52:55.976Z,63.37
2022-08-19T06:55:23.127Z,63.42
2022-08-19T06:57:54.418Z,63.08
2022-08-19T07:00:21.992Z,62.94
2022-08-19T07:02:55.863Z,62.66
2022-08-19T07:05:26.142Z,62.63
2022-08-19T07:07:53.158Z,62.98
2022-08-19T07:10:20.543Z,62.66
2022-08-19T07:12:48.529Z,62.75
2022-08-19T07:15:17.884Z,62.99
2022-08-19T07:17:45.842Z,62.69
2022-08-19T07:20:17.053Z,62.51
2022-08-19T07:22:46.354Z,62.85
2022-08-19T07:25:14.208Z,62.71
2022-08-19T07:27:41.164Z,62.63
2022-08-19T07:30:11.621Z,63.29
2022-08-19T07:32:43.304Z,62.86
2022-08-19T07:35:10.787Z,62.64
2022-08-19T07:37:39.193Z,62.29
2022-08-19T07:40:08.501Z,62.29
2022-08-19T07:42:35.624Z,62.60
2022-08-19T07:45:03.182Z,62.28
2022-08-19T07:47:49.270Z,62.62
2022-08-19T07:50:21.075Z,62.79
2022-08-19T07:52:50.534Z,62.25
2022-08-19T07:55:40.558Z,62.38
2022-08-19T07:58:12.116Z,62.21
2022-08-19T08:00:39.737Z,62.47
2022-08-19T08:03:06.997Z,62.21
2022-08-19T08:05:52.401Z,62.30
2022-08-19T08:08:37.833Z,62.19
2022-08-19T08:11:12.338Z,62.37
2022-08-19T08:13:43.202Z,62.06
2022-08-19T08:16:14.380Z,61.79
2022-08-19T08:18:50.562Z,62.25
2022-08-19T08:21:18.152Z,62.08
2022-08-19T08:23:45.179Z,61.89
2022-08-19T08:26:13.932Z,61.69
2022-08-19T08:28:43.037Z,61.41
2022-08-19T08:31:15.517Z,61.39
2022-08-19T08:33:43.212Z,61.48
2022-08-19T08:36:11.889Z,61.10
2022-08-19T08:38:40.557Z,60.98
2022-08-19T08:41:29.362Z,60.68
2022-08-19T08:43:58.077Z,60.43
2022-08-19T08:46:48.973Z,60.02
2022-08-19T08:50:00.447Z,59.81
2022-08-19T08:52:36.252Z,58.47
2022-08-19T08:55:20.447Z,58.83
2022-08-19T08:57:52.140Z,58.54
2022-08-19T09:00:27.610Z,58.34
2022-08-19T09:02:56.524Z,58.55
2022-08-19T09:05:27.296Z,58.59
2022-08-19T09:08:19.277Z,57.70
2022-08-19T09:10:55.465Z,58.05
2022-08-19T09:13:52.992Z,57.42
2022-08-19T09:16:27.941Z,57.53
2022-08-19T09:19:06.859Z,56.69
2022-08-19T09:21:34.405Z,56.73
2022-08-19T09:24:06.428Z,55.22
2022-08-19T09:26:35.263Z,55.11
2022-08-19T09:29:15.244Z,55.17
2022-08-19T09:31:42.406Z,54.68
2022-08-19T09:34:09.381Z,53.30
2022-08-19T09:36:54.009Z,53.63
2022-08-19T09:39:22.969Z,53.81
2022-08-19T09:41:50.881Z,54.15
2022-08-19T09:44:18.976Z,53.43
2022-08-19T09:46:49.136Z,53.03
2022-08-19T09:49:22.639Z,50.80
2022-08-19T09:51:55.337Z,52.07
2022-08-19T09:54:23.535Z,50.32
2022-08-19T09:56:53.324Z,50.40
2022-08-19T09:59:21.325Z,50.08
2022-08-19T10:01:48.515Z,50.58
2022-08-19T10:04:23.167Z,50.17
2022-08-19T10:06:57.550Z,48.78
2022-08-19T10:09:33.806Z,49.70
2022-08-19T10:12:02.506Z,49.51
2022-08-19T10:14:30.150Z,48.55
2022-08-19T10:16:57.526Z,49.22
2022-08-19T10:19:26.834Z,47.59
2022-08-19T10:21:55.561Z,46.96
2022-08-19T10:24:28.452Z,47.81
2022-08-19T10:26:58.774Z,47.23
2022-08-19T10:29:32.516Z,46.25
2022-08-19T10:32:03.331Z,46.34
2022-08-19T10:34:31.774Z,47.45
2022-08-19T10:37:01.939Z,46.35
2022-08-19T10:39:32.925Z,46.52
2022-08-19T10:42:14.147Z,45.78
2022-08-19T10:44:42.711Z,46.51
2022-08-19T10:47:18.015Z,45.53
2022-08-19T10:50:18.307Z,46.03
2022-08-19T10:52:49.961Z,44.34
2022-08-19T10:55:43.078Z,43.71
2022-08-19T10:58:17.031Z,44.14
2022-08-19T11:00:44.779Z,44.36
2022-08-19T11:03:12.750Z,44.21
2022-08-19T11:05:40.654Z,44.59
2022-08-19T11:08:23.263Z,43.91
2022-08-19T11:10:58.410Z,43.69
2022-08-19T11:13:26.007Z,43.91
2022-08-19T11:16:14.240Z,43.31
2022-08-19T11:18:46.188Z,42.08
2022-08-19T11:21:23.209Z,43.29
2022-08-19T11:23:54.252Z,42.70
2022-08-19T11:26:22.601Z,42.61
2022-08-19T11:28:53.372Z,42.16
2022-08-19T11:31:28.903Z,43.02
2022-08-19T11:34:00.542Z,42.93
2022-08-19T11:36:28.285Z,42.15
2022-08-19T11:38:55.811Z,42.04
2022-08-19T11:41:24.541Z,40.98
2022-08-19T11:43:55.084Z,41.12
2022-08-19T11:46:25.194Z,41.94
2022-08-19T11:48:52.252Z,42.02
2022-08-19T11:51:23.267Z,42.62
2022-08-19T11:53:51.250Z,41.94
2022-08-19T11:56:19.943Z,42.36
2022-08-19T11:58:47.297Z,41.91
2022-08-19T12:01:18.683Z,41.23
2022-08-19T12:03:47.403Z,41.43
2022-08-19T12:06:29.541Z,41.56
2022-08-19T12:08:59.504Z,41.63
2022-08-19T12:11:28.995Z,42.00
2022-08-19T12:13:58.334Z,42.00
2022-08-19T12:16:29.395Z,42.32
2022-08-19T12:18:58.634Z,42.88
2022-08-19T12:21:31.290Z,41.41
2022-08-19T12:24:01.288Z,42.52
2022-08-19T12:26:30.204Z,42.22
2022-08-19T12:28:57.215Z,42.27
2022-08-19T12:31:24.383Z,41.06
2022-08-19T12:33:53.330Z,40.65
2022-08-19T12:36:20.649Z,40.46
2022-08-19T12:38:47.715Z,41.25
2022-08-19T12:41:18.672Z,41.62
2022-08-19T12:43:46.449Z,40.70
2022-08-19T12:46:13.760Z,41.71
2022-08-19T12:48:42.867Z,41.51
2022-08-19T12:51:14.936Z,41.76
2022-08-19T12:53:42.812Z,42.32
2022-08-19T12:56:12.893Z,41.69
2022-08-19T12:58:42.630Z,40.76
2022-08-19T13:01:17.811Z,39.86
2022-08-19T13:03:49.125Z,39.86
2022-08-19T13:06:19.055Z,40.41
2022-08-19T13:08:47.420Z,39.54
2022-08-19T13:11:21.494Z,39.17
2022-08-19T13:13:52.952Z,40.20
2022-08-19T13:16:21.296Z,39.59
2022-08-19T13:18:49.086Z,39.22
2022-08-19T13:21:16.277Z,39.00
2022-08-19T13:23:43.991Z,38.68
2022-08-19T13:26:13.362Z,39.26
2022-08-19T13:29:00.703Z,38.71
2022-08-19T13:31:49.262Z,39.07
2022-08-19T13:34:20.072Z,38.11
2022-08-19T13:36:47.509Z,38.16
2022-08-19T13:39:14.630Z,38.98
2022-08-19T13:41:50.761Z,37.96
2022-08-19T13:44:19.332Z,39.03
2022-08-19T13:46:49.541Z,37.46
2022-08-19T13:49:21.651Z,37.15
2022-08-19T13:51:48.739Z,36.60
2022-08-19T13:54:15.785Z,36.72
2022-08-19T13:56:45.394Z,36.00
2022-08-19T13:59:13.328Z,36.46
2022-08-19T14:01:42.112Z,36.21
2022-08-19T14:04:09.467Z,35.65
2022-08-19T14:06:36.956Z,35.36
2022-08-19T14:09:05.532Z,34.21
2022-08-19T14:11:32.598Z,34.79
2022-08-19T14:13:59.865Z,35.09
2022-08-19T14:16:28.128Z,34.74
2022-08-19T14:18:55.775Z,36.10
2022-08-19T14:21:25.189Z,35.65
2022-08-19T14:23:52.986Z,35.83
2022-08-19T14:26:22.459Z,34.93
2022-08-19T14:28:50.328Z,34.43
2022-08-19T14:31:19.972Z,34.37
2022-08-19T14:33:48.763Z,34.67
2022-08-19T14:36:15.936Z,33.91
2022-08-19T14:38:43.589Z,35.07
2022-08-19T14:41:20.337Z,33.82
2022-08-19T14:43:50.714Z,35.20
2022-08-19T14:46:21.800Z,35.42
2022-08-19T14:48:51.906Z,33.18
2022-08-19T14:51:21.815Z,32.98
2022-08-19T14:53:52.854Z,33.55
2022-08-19T14:56:25.477Z,32.18
2022-08-19T14:58:53.590Z,32.37
2022-08-19T15:01:23.770Z,32.55
2022-08-19T15:03:53.806Z,33.62
2022-08-19T15:06:23.063Z,34.09
2022-08-19T15:08:52.538Z,33.27
2022-08-19T15:11:23.929Z,33.75
2022-08-19T15:13:51.861Z,33.26
2022-08-19T15:16:20.048Z,33.69
2022-08-19T15:18:50.726Z,32.65
2022-08-19T15:21:26.541Z,32.42
2022-08-19T15:23:57.258Z,32.14
2022-08-19T15:26:26.071Z,32.62
2022-08-19T15:28:53.210Z,33.12
2022-08-19T15:31:28.417Z,33.64
2022-08-19T15:33:59.120Z,33.83
2022-08-19T15:36:27.243Z,33.60
2022-08-19T15:38:56.054Z,33.11
2022-08-19T15:41:30.878Z,33.22
2022-08-19T15:44:13.198Z,32.57
2022-08-19T15:46:43.703Z,32.84
2022-08-19T15:49:14.159Z,32.96
2022-08-19T15:51:44.144Z,33.43
2022-08-19T15:54:17.387Z,31.92
2022-08-19T15:57:03.458Z,33.19
2022-08-19T15:59:49.003Z,33.55
2022-08-19T16:02:38.195Z,33.43
2022-08-19T16:05:28.881Z,33.82
2022-08-19T16:07:57.188Z,33.98
2022-08-19T16:10:26.289Z,34.05
2022-08-19T16:13:00.927Z,33.97
2022-08-19T16:15:30.507Z,33.88
2022-08-19T16:17:58.058Z,34.29
2022-08-19T16:20:27.493Z,34.10
2022-08-19T16:22:58.254Z,34.29
2022-08-19T16:25:28.954Z,34.16
2022-08-19T16:28:07.272Z,34.27
2022-08-19T16:30:38.559Z,33.90
2022-08-19T16:33:05.926Z,34.63
2022-08-19T16:35:33.042Z,34.61
2022-08-19T16:38:00.581Z,35.11
2022-08-19T16:40:27.837Z,34.84
2022-08-19T16:42:54.869Z,34.58
2022-08-19T16:45:22.159Z,34.83
2022-08-19T16:47:50.460Z,34.71
2022-08-19T16:50:29.272Z,34.73
2022-08-19T16:53:09.256Z,35.11
2022-08-19T16:55:37.656Z,34.80
2022-08-19T16:58:04.998Z,35.19
2022-08-19T17:00:32.057Z,34.88
2022-08-19T17:03:14.717Z,34.07
2022-08-19T17:05:54.444Z,33.71
2022-08-19T17:08:26.377Z,34.94
2022-08-19T17:11:17.106Z,34.68
2022-08-19T17:13:42.440Z,35.07
2022-08-19T17:16:10.464Z,35.22
2022-08-19T17:18:37.503Z,35.04
2022-08-19T17:21:04.614Z,34.85
2022-08-19T17:23:42.420Z,35.22
2022-08-19T17:26:17.223Z,35.04
2022-08-19T17:28:49.800Z,35.11
2022-08-19T17:31:21.069Z,35.40
2022-08-19T17:33:48.567Z,35.41
2022-08-19T17:36:18.175Z,35.39
2022-08-19T17:38:45.850Z,35.71
2022-08-19T17:41:12.920Z,35.59
2022-08-19T17:43:43.577Z,35.92
2022-08-19T17:46:17.655Z,36.12
2022-08-19T17:48:52.191Z,35.91
2022-08-19T17:51:22.397Z,36.30
2022-08-19T17:53:51.688Z,35.92
2022-08-19T17:56:19.637Z,36.15
2022-08-19T17:58:57.661Z,35.88
2022-08-19T18:01:32.051Z,36.34
2022-08-19T18:04:18.582Z,36.54
2022-08-19T18:06:46.899Z,36.38
2022-08-19T18:09:20.616Z,36.57
2022-08-19T18:11:47.923Z,36.54
2022-08-19T18:14:28.121Z,36.39
2022-08-19T18:17:09.385Z,36.80
2022-08-19T18:19:42.181Z,36.69
2022-08-19T18:22:31.315Z,36.90
2022-08-19T18:24:59.077Z,36.75
2022-08-19T18:27:27.791Z,37.16
2022-08-19T18:29:59.145Z,36.97
2022-08-19T18:32:32.392Z,36.79
2022-08-19T18:35:01.799Z,37.23
2022-08-19T18:37:29.260Z,36.85
2022-08-19T18:40:15.685Z,37.19
2022-08-19T18:43:04.101Z,36.93
2022-08-19T18:45:50.587Z,37.03
2022-08-19T18:48:36.514Z,37.34
2022-08-19T18:51:03.601Z,37.23
2022-08-19T18:53:34.657Z,37.31
2022-08-19T18:56:09.957Z,37.29
2022-08-19T18:58:38.299Z,37.37
2022-08-19T19:01:15.176Z,37.77
2022-08-19T19:03:47.870Z,37.82
2022-08-19T19:06:23.191Z,37.62
2022-08-19T19:08:52.745Z,37.89
2022-08-19T19:11:32.360Z,37.99
2022-08-19T19:14:03.870Z,38.06
2022-08-19T19:16:32.281Z,38.06
2022-08-19T19:18:59.747Z,38.05
2022-08-19T19:21:26.786Z,38.08
2022-08-19T19:23:55.441Z,38.18
2022-08-19T19:26:23.088Z,38.49
2022-08-19T19:28:51.394Z,38.54
2022-08-19T19:31:28.391Z,37.91
2022-08-19T19:33:56.647Z,38.37
2022-08-19T19:36:24.178Z,38.25
2022-08-19T19:38:53.706Z,38.67
2022-08-19T19:41:24.663Z,38.48
2022-08-19T19:44:29.270Z,38.50
2022-08-19T19:46:48.249Z,38.47
2022-08-19T19:49:15.353Z,38.50
2022-08-19T19:51:43.613Z,38.49
2022-08-19T19:54:19.548Z,38.69
2022-08-19T19:56:51.184Z,38.58
2022-08-19T19:59:18.689Z,38.56
2022-08-19T20:01:50.399Z,39.10
2022-08-19T20:04:21.624Z,39.11
2022-08-19T20:06:48.855Z,39.11
2022-08-19T20:09:19.783Z,39.08
2022-08-19T20:11:53.510Z,38.83
2022-08-19T20:14:26.972Z,38.87
2022-08-19T20:16:56.045Z,38.92
2022-08-19T20:19:36.849Z,38.76
2022-08-19T20:22:05.819Z,38.83
2022-08-19T20:24:35.539Z,39.41
2022-08-19T20:27:04.835Z,38.98
2022-08-19T20:29:39.287Z,39.59
2022-08-19T20:32:10.410Z,39.52
2022-08-19T20:34:39.152Z,39.18
2022-08-19T20:37:09.071Z,40.02
2022-08-19T20:39:36.816Z,39.59
2022-08-19T20:42:04.614Z,39.86
2022-08-19T20:44:34.428Z,39.82
2022-08-19T20:47:04.011Z,39.87
2022-08-19T20:49:32.192Z,39.77
2022-08-19T20:51:59.358Z,39.69
2022-08-19T20:54:27.037Z,39.93
2022-08-19T20:56:55.173Z,40.19
2022-08-19T20:59:23.901Z,40.43
2022-08-19T21:01:52.209Z,40.35
2022-08-19T21:04:21.403Z,40.79
2022-08-19T21:06:51.072Z,40.79
2022-08-19T21:09:21.472Z,40.57
2022-08-19T21:11:48.669Z,40.83
2022-08-19T21:14:15.754Z,40.68
2022-08-19T21:16:42.822Z,40.75
2022-08-19T21:19:09.914Z,40.73
2022-08-19T21:21:36.924Z,40.74
2022-08-19T21:24:07.253Z,40.48
2022-08-19T21:26:34.238Z,40.61
2022-08-19T21:29:01.250Z,40.67
2022-08-19T21:31:28.237Z,40.25
2022-08-19T21:33:55.740Z,40.46
2022-08-19T21:36:22.947Z,40.59
2022-08-19T21:38:49.933Z,40.80
2022-08-19T21:41:16.920Z,40.38
2022-08-19T21:43:43.908Z,40.61
2022-08-19T21:46:11.917Z,40.81
2022-08-19T21:48:38.924Z,40.64
2022-08-19T21:51:06.149Z,40.72
2022-08-19T21:53:34.142Z,40.85
2022-08-19T21:56:06.358Z,41.34
2022-08-19T21:58:34.325Z,40.79
2022-08-19T22:01:05.834Z,41.50
2022-08-19T22:03:38.422Z,41.30
2022-08-19T22:06:09.468Z,41.55
2022-08-19T22:08:36.888Z,41.77
2022-08-19T22:11:04.702Z,41.61
2022-08-19T22:13:40.042Z,41.80
2022-08-19T22:16:08.322Z,41.89
2022-08-19T22:18:35.521Z,41.78
2022-08-19T22:21:07.255Z,41.39
2022-08-19T22:23:36.725Z,41.54
2022-08-19T22:26:03.714Z,41.49
2022-08-19T22:28:30.677Z,41.42
2022-08-19T22:30:57.785Z,41.24
2022-08-19T22:33:27.495Z,41.48
2022-08-19T22:35:54.509Z,41.21
2022-08-19T22:38:22.539Z,41.55
2022-08-19T22:40:51.067Z,41.53
2022-08-19T22:43:22.668Z,41.47
2022-08-19T22:45:52.295Z,41.87
2022-08-19T22:48:24.934Z,42.04
2022-08-19T22:51:12.087Z,43.54
2022-08-19T22:53:45.023Z,43.26
2022-08-19T22:56:15.441Z,42.30
2022-08-19T22:58:43.561Z,42.59
2022-08-19T23:01:14.684Z,42.60
2022-08-19T23:03:57.325Z,44.10
2022-08-19T23:06:33.881Z,44.85
2022-08-19T23:09:05.253Z,44.62
2022-08-19T23:11:35.648Z,43.75
2022-08-19T23:14:07.116Z,47.22
2022-08-19T23:16:35.921Z,44.36
2022-08-19T23:19:03.390Z,45.15
2022-08-19T23:21:30.366Z,45.75
2022-08-19T23:23:57.506Z,46.72
2022-08-19T23:26:24.528Z,46.42
2022-08-19T23:29:10.034Z,46.14
2022-08-19T23:31:37.085Z,46.15
2022-08-19T23:34:04.138Z,48.63
2022-08-19T23:36:31.259Z,47.11
2022-08-19T23:38:59.557Z,48.69
2022-08-19T23:41:29.958Z,47.83
2022-08-19T23:43:57.383Z,49.19
2022-08-19T23:46:28.237Z,47.68
2022-08-19T23:48:57.323Z,46.63
2022-08-19T23:51:26.733Z,48.09
2022-08-19T23:53:53.908Z,48.45
2022-08-19T23:56:21.437Z,49.21
2022-08-19T23:58:49.046Z,47.24
